Time;durP1;ratioP1;P1;durP2;ratioP2;P2;SDS_P1;SDS_P2;PMS_P1;PMS_P2;Temp;Humidity;BMP_temperature;BMP_pressure;BME280_temperature;BME280_humidity;BME280_pressure;Samples;Min_cycle;Max_cycle;Signal;HPM_P1;HPM_P2
2023/04/23 00:00:16;;;;;;;50.88;23.02;;;8.10;99.90;;;;;;4954402;28;20063;-82
2023/04/23 00:02:48;;;;;;;58.75;26.15;;;8.00;99.90;;;;;;4952443;28;20480;-83
2023/04/23 00:05:15;;;;;;;58.38;26.23;;;8.00;99.90;;;;;;4953207;28;20039;-83
2023/04/23 00:07:41;;;;;;;54.63;27.10;;;8.00;99.90;;;;;;4960707;28;20062;-83
2023/04/23 00:10:08;;;;;;;55.47;26.73;;;8.00;99.90;;;;;;4974385;28;20050;-83
2023/04/23 00:12:34;;;;;;;55.58;26.13;;;8.00;99.90;;;;;;4996074;28;20090;-83
2023/04/23 00:15:00;;;;;;;55.63;25.13;;;7.90;99.90;;;;;;4994886;28;20043;-83
2023/04/23 00:17:26;;;;;;;49.17;23.27;;;8.00;99.90;;;;;;4992750;28;20062;-82
2023/04/23 00:19:52;;;;;;;52.47;23.30;;;7.90;99.90;;;;;;4995323;28;20046;-83
2023/04/23 00:22:19;;;;;;;47.53;22.77;;;7.90;99.90;;;;;;4984653;28;20406;-82
2023/04/23 00:24:45;;;;;;;49.42;22.27;;;9.10;99.90;;;;;;4975452;28;20057;-82
2023/04/23 00:27:11;;;;;;;52.25;23.27;;;7.90;99.90;;;;;;4993053;28;20034;-83
2023/04/23 00:29:36;;;;;;;53.10;24.02;;;7.90;99.90;;;;;;4975398;28;20487;-82
2023/04/23 00:32:02;;;;;;;52.80;23.73;;;7.90;99.90;;;;;;4991836;28;20047;-83
2023/04/23 00:34:28;;;;;;;56.08;24.52;;;7.90;99.90;;;;;;4975148;28;20046;-82
2023/04/23 00:36:54;;;;;;;53.53;24.15;;;7.80;99.90;;;;;;4992947;28;20046;-82
2023/04/23 00:39:20;;;;;;;51.63;23.45;;;7.90;99.90;;;;;;4974572;28;20051;-82
2023/04/23 00:41:47;;;;;;;55.10;24.33;;;7.90;99.90;;;;;;4992978;28;20057;-82
2023/04/23 00:44:15;;;;;;;56.95;23.73;;;7.80;99.90;;;;;;4992085;28;20074;-83
2023/04/23 00:46:42;;;;;;;56.88;24.10;;;7.80;99.90;;;;;;4975469;28;20073;-82
2023/04/23 00:49:08;;;;;;;53.83;23.02;;;7.80;99.90;;;;;;4995504;28;20042;-82
2023/04/23 00:51:34;;;;;;;58.08;24.73;;;7.80;99.90;;;;;;4978266;28;20046;-83
2023/04/23 00:53:59;;;;;;;54.17;23.40;;;7.80;99.90;;;;;;4996518;28;20038;-83
2023/04/23 00:56:26;;;;;;;54.70;23.90;;;7.80;99.90;;;;;;4979339;28;20061;-83
2023/04/23 00:58:52;;;;;;;55.90;24.20;;;7.70;99.90;;;;;;4978058;28;20042;-83
2023/04/23 01:01:46;;;;;;;57.95;24.08;;;7.70;99.90;;;;;;5171105;23;20132;-83
2023/04/23 01:07:43;;;;;;;59.22;24.83;;;7.60;99.90;;;;;;5016525;28;20509;-82
2023/04/23 01:10:10;;;;;;;59.72;24.38;;;8.70;99.90;;;;;;5038292;28;20041;-83
2023/04/23 01:12:36;;;;;;;59.88;24.20;;;7.70;99.90;;;;;;5020130;28;20045;-83
2023/04/23 01:15:03;;;;;;;58.53;25.10;;;7.70;99.90;;;;;;5035102;28;20045;-83
2023/04/23 01:17:28;;;;;;;64.85;26.23;;;7.60;99.90;;;;;;5016956;28;20468;-83
2023/04/23 01:19:57;;;;;;;66.32;26.38;;;7.60;99.90;;;;;;5028304;28;20095;-82
2023/04/23 01:22:36;;;;;;;66.10;26.35;;;7.50;99.90;;;;;;5037148;28;20041;-83
2023/04/23 01:25:02;;;;;;;70.68;27.52;;;7.70;99.90;;;;;;5054806;28;20041;-82
2023/04/23 01:27:28;;;;;;;64.45;26.77;;;7.50;99.90;;;;;;5036224;28;20049;-83
2023/04/23 01:30:04;;;;;;;65.28;27.98;;;7.60;99.90;;;;;;5037207;28;20041;-82
2023/04/23 01:32:31;;;;;;;81.13;28.67;;;7.60;99.90;;;;;;5032335;28;20134;-83
2023/04/23 01:35:12;;;;;;;77.18;28.50;;;7.70;99.90;;;;;;5034261;28;20125;-83
2023/04/23 01:37:38;;;;;;;80.15;29.58;;;8.60;99.90;;;;;;5035240;28;20148;-82
2023/04/23 01:40:06;;;;;;;79.97;28.98;;;7.50;99.90;;;;;;5034834;28;20038;-83
2023/04/23 01:42:32;;;;;;;83.13;31.67;;;7.50;99.90;;;;;;5037515;28;20486;-82
2023/04/23 01:44:58;;;;;;;80.15;29.17;;;8.20;99.90;;;;;;5019179;28;20048;-83
2023/04/23 01:47:24;;;;;;;88.53;31.98;;;7.50;99.90;;;;;;5034385;28;20049;-83
2023/04/23 01:49:49;;;;;;;81.88;31.00;;;7.40;99.90;;;;;;5020028;28;20045;-82
2023/04/23 01:52:15;;;;;;;87.40;30.92;;;7.40;99.90;;;;;;5018104;28;20045;-83
2023/04/23 01:54:40;;;;;;;94.72;36.28;;;7.40;99.90;;;;;;5000994;28;20053;-82
2023/04/23 01:57:06;;;;;;;88.88;31.33;;;7.40;99.90;;;;;;5034622;28;20383;-83
2023/04/23 01:59:32;;;;;;;91.22;31.73;;;7.40;99.90;;;;;;5015964;28;20370;-83
2023/04/23 02:01:58;;;;;;;104.50;37.22;;;8.10;99.90;;;;;;5015839;28;20135;-82
2023/04/23 02:04:24;;;;;;;103.32;37.92;;;7.30;99.90;;;;;;5034420;28;20056;-83
2023/04/23 02:06:50;;;;;;;111.40;38.72;;;8.60;99.90;;;;;;5034624;28;20045;-82
2023/04/23 02:09:17;;;;;;;131.23;42.08;;;7.30;99.90;;;;;;5033466;28;20065;-82
2023/04/23 02:11:46;;;;;;;110.18;38.63;;;8.20;99.90;;;;;;5034516;28;20081;-82
2023/04/23 02:14:13;;;;;;;117.45;41.95;;;7.30;99.90;;;;;;5020100;28;20134;-83
2023/04/23 02:16:39;;;;;;;120.15;40.53;;;7.30;99.90;;;;;;5036178;28;20448;-83
2023/04/23 02:19:10;;;;;;;128.55;42.17;;;7.20;99.90;;;;;;5035124;28;20137;-83
2023/04/23 02:21:35;;;;;;;133.73;39.15;;;7.20;99.90;;;;;;5036264;28;20107;-82
2023/04/23 02:24:01;;;;;;;126.13;40.65;;;7.10;99.90;;;;;;5035156;28;20037;-82
2023/04/23 02:26:27;;;;;;;144.18;41.45;;;7.10;99.90;;;;;;5054184;28;20048;-83
2023/04/23 02:28:53;;;;;;;134.23;39.67;;;7.00;99.90;;;;;;5054028;28;20047;-83
2023/04/23 02:31:19;;;;;;;133.20;42.05;;;7.10;99.90;;;;;;5013130;28;20050;-82
2023/04/23 02:33:45;;;;;;;106.78;38.72;;;7.00;99.90;;;;;;4996228;28;20049;-82
2023/04/23 02:36:11;;;;;;;124.22;39.28;;;6.90;99.90;;;;;;5032386;28;20543;-83
2023/04/23 02:38:41;;;;;;;134.60;41.58;;;6.80;99.90;;;;;;5015394;28;20102;-82
2023/04/23 02:41:07;;;;;;;152.07;42.88;;;6.80;99.90;;;;;;5033351;28;20100;-83
2023/04/23 02:43:35;;;;;;;151.38;43.15;;;6.70;99.90;;;;;;5053675;28;20125;-82
2023/04/23 02:46:07;;;;;;;147.77;43.22;;;6.70;99.90;;;;;;5035087;28;20135;-83
2023/04/23 02:48:37;;;;;;;137.95;42.22;;;6.60;99.90;;;;;;5035694;28;20091;-82
2023/04/23 02:51:03;;;;;;;150.70;44.92;;;6.60;99.90;;;;;;5034566;28;20055;-83
2023/04/23 02:53:35;;;;;;;136.75;44.53;;;6.50;99.90;;;;;;5053857;28;20188;-83
2023/04/23 02:56:01;;;;;;;146.25;44.40;;;6.50;99.90;;;;;;5053434;28;20052;-83
2023/04/23 02:58:45;;;;;;;146.95;43.20;;;7.30;99.90;;;;;;5035026;28;20121;-83
2023/04/23 03:01:10;;;;;;;151.17;43.97;;;7.40;99.90;;;;;;5034727;28;20048;-83
2023/04/23 03:03:36;;;;;;;155.73;43.50;;;6.30;99.90;;;;;;5035278;28;20813;-83
2023/04/23 03:06:02;;;;;;;125.37;43.10;;;6.30;99.90;;;;;;5052074;28;20049;-82
2023/04/23 03:08:34;;;;;;;148.87;42.53;;;6.30;99.90;;;;;;5053206;28;20036;-82
2023/04/23 03:11:01;;;;;;;143.67;43.97;;;7.50;99.90;;;;;;5034984;28;20045;-83
2023/04/23 03:13:45;;;;;;;165.90;44.47;;;7.00;99.90;;;;;;5065549;28;20120;-83
2023/04/23 03:16:10;;;;;;;151.60;45.00;;;6.10;99.90;;;;;;5019515;28;20137;-83
2023/04/23 03:22:23;;;;;;;163.07;44.30;;;5.40;99.90;;;;;;5033366;28;20063;-82
2023/04/23 03:24:49;;;;;;;175.20;46.70;;;6.10;99.90;;;;;;5015486;28;20057;-83
2023/04/23 03:27:17;;;;;;;207.90;50.72;;;6.10;99.90;;;;;;5032367;28;20089;-83
2023/04/23 03:29:43;;;;;;;192.55;50.45;;;6.00;99.90;;;;;;5033137;28;20048;-83
2023/04/23 03:32:09;;;;;;;166.52;47.47;;;6.00;99.90;;;;;;5033046;28;20128;-83
2023/04/23 03:34:34;;;;;;;156.75;45.72;;;6.00;99.90;;;;;;5014371;28;20096;-82
2023/04/23 03:37:00;;;;;;;195.85;49.50;;;6.10;99.90;;;;;;5014852;28;20045;-83
2023/04/23 03:39:26;;;;;;;160.52;47.72;;;7.20;99.90;;;;;;5015511;28;20405;-83
2023/04/23 03:41:51;;;;;;;205.52;50.03;;;6.00;99.90;;;;;;5014358;28;20056;-82
2023/04/23 03:44:23;;;;;;;206.70;49.80;;;6.40;99.90;;;;;;5058828;23;20046;-83
2023/04/23 03:47:01;;;;;;;179.15;48.53;;;5.20;99.90;;;;;;4976099;28;20042;-83
2023/04/23 03:49:36;;;;;;;194.80;50.75;;;5.70;99.90;;;;;;4993870;28;20073;-83
2023/04/23 03:52:01;;;;;;;200.95;45.30;;;5.80;99.90;;;;;;5019225;23;20042;-83
2023/04/23 03:54:27;;;;;;;217.37;50.57;;;6.00;99.90;;;;;;4994620;28;20052;-83
2023/04/23 03:57:08;;;;;;;192.80;47.10;;;6.90;99.90;;;;;;4995330;28;20042;-82
2023/04/23 03:59:34;;;;;;;213.68;49.90;;;6.00;99.90;;;;;;4995042;28;20052;-83
2023/04/23 04:02:02;;;;;;;256.65;53.67;;;6.10;99.90;;;;;;4989865;28;20060;-83
2023/04/23 04:04:29;;;;;;;240.63;52.95;;;7.40;99.90;;;;;;4994623;28;20100;-83
2023/04/23 04:06:55;;;;;;;225.80;52.92;;;6.20;99.90;;;;;;4995334;28;20080;-83
2023/04/23 04:09:21;;;;;;;189.52;47.53;;;6.20;99.90;;;;;;5008741;28;20465;-83
2023/04/23 04:11:46;;;;;;;237.23;52.47;;;6.20;99.90;;;;;;5014393;28;20050;-83
2023/04/23 04:14:13;;;;;;;228.82;51.08;;;6.20;99.90;;;;;;4995413;28;20053;-83
2023/04/23 04:16:38;;;;;;;212.47;51.07;;;6.20;99.90;;;;;;4996074;28;20056;-83
2023/04/23 04:19:04;;;;;;;227.20;54.37;;;6.30;99.90;;;;;;5012271;28;20030;-82
2023/04/23 04:21:31;;;;;;;249.27;56.50;;;6.30;99.90;;;;;;4994696;28;20054;-82
2023/04/23 04:23:57;;;;;;;255.83;52.53;;;6.30;99.90;;;;;;5014685;28;20193;-83
2023/04/23 04:26:24;;;;;;;247.33;51.13;;;6.30;99.90;;;;;;4998872;28;20101;-83
2023/04/23 04:28:50;;;;;;;248.40;53.50;;;6.30;99.90;;;;;;4999051;28;20045;-83
2023/04/23 04:31:29;;;;;;;232.37;52.97;;;6.30;99.90;;;;;;4998192;28;20054;-82
2023/04/23 04:33:56;;;;;;;226.17;51.73;;;6.30;99.90;;;;;;5015486;28;20057;-82
2023/04/23 04:36:24;;;;;;;235.60;53.07;;;6.20;99.90;;;;;;5015874;28;20045;-82
2023/04/23 04:38:57;;;;;;;235.45;53.42;;;6.60;99.90;;;;;;4997117;28;20046;-82
2023/04/23 04:41:24;;;;;;;234.60;53.87;;;6.40;99.90;;;;;;5001175;28;20417;-81
2023/04/23 04:43:50;;;;;;;217.07;53.30;;;6.40;99.90;;;;;;5000104;28;20046;-82
2023/04/23 04:46:19;;;;;;;217.60;54.17;;;6.40;99.90;;;;;;5016204;28;20045;-82
2023/04/23 04:48:48;;;;;;;220.97;53.23;;;6.50;99.90;;;;;;5000817;28;20046;-82
2023/04/23 04:51:13;;;;;;;221.68;53.90;;;6.50;99.90;;;;;;5019457;28;20064;-82
2023/04/23 04:53:42;;;;;;;240.57;55.33;;;6.50;99.90;;;;;;4998309;28;20057;-83
2023/04/23 04:56:24;;;;;;;239.48;53.20;;;7.10;99.90;;;;;;4998392;28;20448;-82
2023/04/23 04:58:53;;;;;;;241.38;55.80;;;6.10;99.90;;;;;;4998203;28;20050;-82
2023/04/23 05:01:20;;;;;;;234.98;54.72;;;6.50;99.90;;;;;;5022036;23;20080;-82
2023/04/23 05:03:46;;;;;;;210.38;52.97;;;6.70;99.90;;;;;;4998229;28;20083;-82
2023/04/23 05:06:12;;;;;;;256.60;55.75;;;6.70;99.90;;;;;;4997435;28;20081;-82
2023/04/23 05:08:37;;;;;;;215.60;52.63;;;6.80;99.90;;;;;;5015259;28;20060;-82
2023/04/23 05:11:05;;;;;;;251.82;55.22;;;6.80;99.90;;;;;;5015684;28;20125;-82
2023/04/23 05:13:31;;;;;;;226.82;54.80;;;7.00;99.90;;;;;;4997316;28;20049;-82
2023/04/23 05:15:57;;;;;;;259.13;55.38;;;7.40;99.90;;;;;;5014118;28;20053;-82
2023/04/23 05:18:22;;;;;;;244.95;55.40;;;7.30;99.90;;;;;;4997257;28;20140;-82
2023/04/23 05:20:48;;;;;;;218.13;51.95;;;8.60;99.90;;;;;;4997230;28;20050;-82
2023/04/23 05:23:14;;;;;;;201.82;52.50;;;7.40;99.90;;;;;;4998184;28;20436;-82
2023/04/23 05:25:40;;;;;;;224.93;52.92;;;7.40;99.90;;;;;;5014660;28;20588;-82
2023/04/23 05:28:07;;;;;;;190.10;51.95;;;7.50;99.90;;;;;;4997407;28;20037;-82
2023/04/23 05:30:44;;;;;;;196.55;51.03;;;7.50;99.90;;;;;;4997742;28;20046;-82
2023/04/23 05:36:54;;;;;;;211.77;52.65;;;7.60;99.90;;;;;;5015122;28;20057;-82
2023/04/23 05:39:19;;;;;;;193.48;52.03;;;6.90;99.90;;;;;;5015376;28;20045;-82
2023/04/23 05:41:46;;;;;;;194.02;51.10;;;8.30;99.90;;;;;;4996403;28;20054;-82
2023/04/23 05:44:12;;;;;;;192.63;49.08;;;7.80;99.90;;;;;;4997510;28;20553;-83
2023/04/23 05:46:40;;;;;;;206.82;50.92;;;7.80;99.90;;;;;;5014716;28;20041;-82
2023/04/23 05:49:06;;;;;;;173.52;48.35;;;7.90;99.90;;;;;;4997172;28;20112;-82
2023/04/23 05:51:32;;;;;;;173.52;49.88;;;7.90;99.90;;;;;;4996934;28;20085;-82
2023/04/23 05:53:57;;;;;;;175.45;48.70;;;7.90;99.90;;;;;;5014571;28;20045;-82
2023/04/23 05:56:29;;;;;;;173.93;49.08;;;7.90;99.90;;;;;;4997722;28;20060;-82
2023/04/23 05:59:19;;;;;;;174.77;49.78;;;8.10;99.90;;;;;;5015056;28;20042;-82
2023/04/23 06:02:10;;;;;;;163.98;47.97;;;8.10;99.90;;;;;;4996079;28;20058;-82
2023/04/23 06:04:44;;;;;;;158.05;46.83;;;8.00;99.90;;;;;;5013846;28;20185;-82
2023/04/23 06:07:11;;;;;;;148.52;46.00;;;7.90;99.90;;;;;;4996689;28;20482;-82
2023/04/23 06:09:36;;;;;;;142.98;45.03;;;8.00;99.90;;;;;;4996607;28;20414;-82
2023/04/23 06:12:21;;;;;;;145.77;48.15;;;8.10;99.90;;;;;;5019174;28;20045;-83
2023/04/23 06:14:47;;;;;;;148.40;45.97;;;8.20;99.90;;;;;;4996832;28;20529;-82
2023/04/23 06:17:31;;;;;;;142.52;45.15;;;8.20;99.90;;;;;;4979504;28;20062;-82
2023/04/23 06:19:57;;;;;;;143.75;46.53;;;8.20;99.90;;;;;;5019084;28;20049;-84
2023/04/23 06:22:44;;;;;;;148.88;46.08;;;9.50;99.90;;;;;;4996790;28;20394;-83
2023/04/23 06:25:24;;;;;;;145.38;47.53;;;8.00;99.90;;;;;;5014544;28;20409;-84
2023/04/23 06:27:50;;;;;;;138.82;45.28;;;9.10;99.90;;;;;;4997064;28;20837;-83
2023/04/23 06:30:16;;;;;;;133.32;45.05;;;8.60;99.90;;;;;;4996044;28;20042;-83
2023/04/23 06:32:42;;;;;;;131.43;44.70;;;9.60;99.90;;;;;;4997207;28;20235;-83
2023/04/23 06:35:08;;;;;;;126.93;44.47;;;8.70;99.90;;;;;;5014548;28;20053;-83
2023/04/23 06:37:33;;;;;;;128.82;43.70;;;8.90;99.90;;;;;;4996231;28;20046;-84
2023/04/23 06:39:59;;;;;;;117.88;42.92;;;8.90;99.90;;;;;;5014455;28;20433;-83
2023/04/23 06:42:25;;;;;;;113.25;40.85;;;9.00;99.90;;;;;;5013944;28;20505;-84
2023/04/23 06:44:53;;;;;;;117.00;41.97;;;9.80;99.90;;;;;;5013609;28;20066;-86
2023/04/23 06:47:19;;;;;;;99.38;40.38;;;9.20;99.90;;;;;;4995607;28;20048;-85
2023/04/23 06:49:44;;;;;;;104.13;40.50;;;9.30;99.90;;;;;;4996726;28;20046;-83
2023/04/23 06:52:10;;;;;;;99.78;39.38;;;9.40;99.90;;;;;;4995209;28;20072;-85
2023/04/23 06:54:36;;;;;;;93.63;38.70;;;9.50;99.90;;;;;;4997075;28;20582;-81
2023/04/23 06:57:01;;;;;;;98.07;40.40;;;9.60;99.90;;;;;;5012762;28;20060;-81
2023/04/23 06:59:27;;;;;;;91.93;38.97;;;9.80;99.90;;;;;;4996595;28;20042;-81
2023/04/23 07:01:52;;;;;;;85.80;37.17;;;9.90;99.90;;;;;;5013268;28;20066;-82
2023/04/23 07:04:18;;;;;;;82.78;36.67;;;10.60;99.90;;;;;;5012895;28;20041;-82
2023/04/23 07:06:43;;;;;;;81.32;36.92;;;10.10;99.90;;;;;;4996241;28;20071;-82
2023/04/23 07:09:09;;;;;;;75.75;35.95;;;10.20;99.90;;;;;;4999201;28;20054;-83
2023/04/23 07:11:35;;;;;;;76.65;34.55;;;10.30;99.90;;;;;;5021481;28;20048;-84
2023/04/23 07:14:02;;;;;;;73.47;34.28;;;11.30;99.90;;;;;;5013667;28;20108;-82
2023/04/23 07:16:32;;;;;;;70.53;33.78;;;11.00;99.90;;;;;;4996664;28;20069;-81
2023/04/23 07:18:58;;;;;;;64.07;32.55;;;10.60;99.90;;;;;;4995077;28;20045;-88
2023/04/23 07:21:26;;;;;;;62.38;31.50;;;10.70;99.90;;;;;;5012386;28;20068;-84
2023/04/23 07:23:52;;;;;;;58.45;29.85;;;10.80;99.90;;;;;;5012943;28;20058;-84
2023/04/23 07:26:24;;;;;;;60.10;30.23;;;10.90;99.90;;;;;;4994961;28;20117;-90
2023/04/23 07:28:50;;;;;;;54.40;29.17;;;12.00;99.90;;;;;;5013346;28;20042;-84
2023/04/23 07:31:16;;;;;;;57.78;29.88;;;11.10;99.90;;;;;;5013287;28;20064;-84
2023/04/23 07:33:44;;;;;;;54.13;29.60;;;11.20;99.90;;;;;;5012089;28;20430;-84
2023/04/23 07:36:10;;;;;;;53.83;29.08;;;11.80;99.90;;;;;;4994997;28;20135;-84
2023/04/23 07:38:35;;;;;;;54.08;27.55;;;11.10;99.90;;;;;;4995612;28;20045;-85
2023/04/23 07:41:01;;;;;;;48.67;28.00;;;11.20;99.90;;;;;;5012284;28;20137;-84
2023/04/23 07:43:27;;;;;;;49.22;27.90;;;11.20;99.90;;;;;;5016270;28;20038;-84
2023/04/23 07:45:52;;;;;;;46.35;26.30;;;11.40;99.90;;;;;;5013986;28;20041;-84
2023/04/23 07:48:18;;;;;;;47.08;27.33;;;11.40;99.90;;;;;;5012084;28;20096;-84
2023/04/23 07:50:43;;;;;;;47.13;26.38;;;11.50;99.90;;;;;;5004628;28;20386;-85
2023/04/23 07:53:09;;;;;;;43.13;25.42;;;11.60;99.90;;;;;;4994162;28;20037;-84
2023/04/23 07:55:35;;;;;;;46.05;26.63;;;11.50;99.90;;;;;;5012347;28;20042;-84
2023/04/23 07:58:01;;;;;;;41.47;24.23;;;11.50;99.90;;;;;;4994215;28;20046;-84
2023/04/23 08:00:26;;;;;;;43.80;25.98;;;11.60;99.90;;;;;;4993874;28;20874;-84
2023/04/23 08:02:52;;;;;;;42.45;25.65;;;11.60;99.90;;;;;;5012321;28;20073;-84
2023/04/23 08:05:18;;;;;;;42.55;24.35;;;11.50;99.90;;;;;;4994792;28;20054;-84
2023/04/23 08:07:43;;;;;;;40.40;23.80;;;12.50;99.90;;;;;;4995105;28;20516;-84
2023/04/23 08:10:09;;;;;;;38.55;22.77;;;11.60;99.90;;;;;;5012532;28;20045;-84
2023/04/23 08:12:35;;;;;;;39.92;23.73;;;11.60;99.90;;;;;;4995447;28;20121;-85
2023/04/23 08:15:01;;;;;;;39.28;23.30;;;11.70;99.90;;;;;;4994033;28;20045;-84
2023/04/23 08:17:27;;;;;;;38.35;22.75;;;11.80;99.90;;;;;;5012910;28;20120;-84
2023/04/23 08:19:52;;;;;;;39.47;23.15;;;12.00;99.90;;;;;;5012618;28;20131;-83
2023/04/23 08:22:18;;;;;;;40.97;25.80;;;12.10;99.90;;;;;;4993957;28;20184;-84
2023/04/23 08:24:45;;;;;;;40.38;22.50;;;12.80;99.90;;;;;;5012449;28;20042;-85
2023/04/23 08:27:11;;;;;;;35.20;23.23;;;13.70;99.90;;;;;;4994468;28;20147;-83
2023/04/23 08:29:51;;;;;;;39.35;24.50;;;13.30;99.90;;;;;;5007905;28;20454;-83
2023/04/23 08:32:27;;;;;;;38.58;23.73;;;13.60;99.90;;;;;;4995305;28;20145;-86
2023/04/23 08:34:57;;;;;;;38.67;22.92;;;13.90;99.90;;;;;;4995201;28;20041;-85
2023/04/23 08:37:23;;;;;;;32.95;21.08;;;13.20;99.90;;;;;;4994652;28;20041;-82
2023/04/23 08:39:49;;;;;;;38.30;23.42;;;13.80;99.90;;;;;;5012747;28;20449;-82
2023/04/23 08:42:22;;;;;;;34.60;21.65;;;12.90;99.90;;;;;;5011987;28;20053;-82
2023/04/23 08:44:50;;;;;;;34.42;21.27;;;13.80;99.90;;;;;;4994780;28;20057;-82
2023/04/23 08:47:17;;;;;;;32.38;20.08;;;13.20;99.90;;;;;;4994451;28;20124;-83
2023/04/23 08:49:44;;;;;;;31.23;19.83;;;13.20;99.90;;;;;;5011095;28;20046;-83
2023/04/23 08:52:22;;;;;;;31.60;18.65;;;13.10;99.90;;;;;;5012031;28;20506;-82
2023/04/23 08:54:51;;;;;;;28.33;18.58;;;13.80;99.90;;;;;;5012498;28;20076;-82
2023/04/23 08:57:17;;;;;;;28.75;17.77;;;13.50;99.90;;;;;;4993300;28;20050;-80
2023/04/23 08:59:45;;;;;;;27.83;17.08;;;13.90;99.90;;;;;;4994475;28;20038;-82
2023/04/23 09:02:11;;;;;;;25.63;17.08;;;13.80;99.90;;;;;;4994142;28;20092;-82
2023/04/23 09:04:37;;;;;;;29.00;18.13;;;14.00;99.90;;;;;;4993806;28;20085;-81
2023/04/23 09:07:06;;;;;;;25.10;15.65;;;13.90;99.90;;;;;;4994079;28;20053;-82
2023/04/23 09:09:33;;;;;;;24.17;15.60;;;14.10;99.90;;;;;;5014312;28;20046;-82
2023/04/23 09:11:59;;;;;;;24.55;15.63;;;14.80;99.90;;;;;;4997422;28;20045;-82
2023/04/23 09:14:25;;;;;;;25.42;14.98;;;14.40;99.90;;;;;;5018768;28;20113;-82
2023/04/23 09:16:51;;;;;;;23.92;14.32;;;14.50;99.90;;;;;;4998497;28;20041;-83
2023/04/23 09:19:18;;;;;;;21.73;12.65;;;15.30;99.90;;;;;;4997499;28;20092;-83
2023/04/23 09:21:45;;;;;;;22.10;12.68;;;14.90;99.90;;;;;;5004292;28;20050;-83
2023/04/23 09:24:13;;;;;;;21.67;12.27;;;14.80;99.90;;;;;;5016698;28;20060;-85
2023/04/23 09:26:46;;;;;;;19.73;12.38;;;14.80;99.90;;;;;;4995279;28;20098;-84
2023/04/23 09:29:19;;;;;;;19.23;11.88;;;14.80;99.90;;;;;;4996120;28;20042;-83
2023/04/23 09:31:48;;;;;;;21.20;13.65;;;14.90;99.90;;;;;;4995532;28;20042;-83
2023/04/23 09:34:24;;;;;;;19.15;11.30;;;15.00;99.90;;;;;;4978441;28;20038;-83
2023/04/23 09:36:52;;;;;;;24.35;13.45;;;15.20;99.90;;;;;;4995713;28;20431;-83
2023/04/23 09:39:22;;;;;;;18.08;9.85;;;15.10;99.90;;;;;;4977724;28;20475;-83
2023/04/23 09:41:50;;;;;;;19.52;11.05;;;14.90;99.90;;;;;;4995484;28;20577;-83
2023/04/23 09:44:18;;;;;;;22.65;11.18;;;15.40;99.90;;;;;;4977961;28;20205;-83
2023/04/23 09:46:44;;;;;;;17.63;10.10;;;15.60;99.90;;;;;;4996627;28;20049;-83
2023/04/23 09:49:11;;;;;;;15.23;7.75;;;15.90;99.90;;;;;;4997445;28;20046;-83
2023/04/23 09:51:39;;;;;;;14.90;7.35;;;15.90;99.90;;;;;;4996690;28;20046;-83
2023/04/23 09:54:13;;;;;;;14.05;7.90;;;15.70;99.90;;;;;;4996271;28;20057;-83
2023/04/23 09:56:42;;;;;;;14.82;8.32;;;16.00;99.90;;;;;;5014504;28;20470;-82
2023/04/23 09:59:29;;;;;;;16.23;8.73;;;16.10;99.90;;;;;;4996927;28;20048;-82
2023/04/23 10:01:56;;;;;;;20.63;8.35;;;16.30;99.90;;;;;;4985982;28;20073;-83
2023/04/23 10:04:23;;;;;;;14.27;7.53;;;16.80;99.90;;;;;;4990802;28;20045;-83
2023/04/23 10:06:57;;;;;;;12.30;6.93;;;16.90;99.90;;;;;;5013315;28;20041;-84
2023/04/23 10:09:25;;;;;;;15.48;7.50;;;17.20;99.90;;;;;;4996768;28;20052;-83
2023/04/23 10:11:56;;;;;;;13.73;7.53;;;17.30;99.90;;;;;;4996332;28;20486;-85
2023/04/23 10:14:23;;;;;;;14.00;6.88;;;17.60;99.90;;;;;;4999261;28;20643;-82
2023/04/23 10:16:51;;;;;;;12.82;6.43;;;17.80;99.90;;;;;;4997503;28;20050;-83
2023/04/23 10:19:21;;;;;;;13.35;5.78;;;17.60;99.90;;;;;;4996615;28;20041;-82
2023/04/23 10:21:53;;;;;;;11.95;6.50;;;17.40;99.90;;;;;;5012282;28;20046;-82
2023/04/23 10:24:21;;;;;;;13.50;7.05;;;17.50;99.90;;;;;;4996091;28;20046;-83
2023/04/23 10:26:50;;;;;;;13.70;7.53;;;17.60;99.90;;;;;;5013871;28;20038;-82
2023/04/23 10:29:18;;;;;;;13.55;7.00;;;18.00;99.90;;;;;;4995339;28;20490;-82
2023/04/23 10:31:45;;;;;;;12.00;6.95;;;17.40;99.90;;;;;;5013403;28;20042;-83
2023/04/23 10:34:11;;;;;;;12.55;5.93;;;17.10;99.90;;;;;;4995758;28;20525;-82
2023/04/23 10:36:37;;;;;;;11.40;5.93;;;17.30;99.90;;;;;;5012941;28;20085;-85
2023/04/23 10:39:07;;;;;;;11.98;6.13;;;17.50;99.90;;;;;;4995684;28;20038;-84
2023/04/23 10:41:39;;;;;;;12.38;5.90;;;17.40;99.90;;;;;;5013822;28;20061;-83
2023/04/23 10:44:06;;;;;;;10.95;5.57;;;17.70;99.90;;;;;;4999282;28;20096;-83
2023/04/23 10:46:33;;;;;;;11.70;5.35;;;17.50;99.90;;;;;;5014278;28;20375;-82
2023/04/23 10:49:15;;;;;;;12.32;5.90;;;18.60;99.90;;;;;;4995836;28;20397;-83
2023/04/23 10:51:44;;;;;;;10.82;4.38;;;18.40;99.90;;;;;;5001175;28;20042;-83
2023/04/23 10:54:13;;;;;;;10.23;4.47;;;18.70;99.90;;;;;;5015143;28;20042;-85
2023/04/23 10:56:40;;;;;;;10.77;4.40;;;18.70;99.90;;;;;;5013346;28;20087;-84
2023/04/23 10:59:07;;;;;;;9.80;3.70;;;18.60;99.90;;;;;;5013695;28;20042;-84
2023/04/23 11:01:33;;;;;;;9.73;3.80;;;18.00;99.90;;;;;;5013729;28;20065;-84
2023/04/23 11:04:19;;;;;;;9.13;3.92;;;18.00;99.90;;;;;;4995090;28;20058;-83
2023/04/23 11:06:48;;;;;;;10.88;4.00;;;18.10;99.90;;;;;;5274548;23;20176;-83
2023/04/23 11:09:37;;;;;;;9.75;3.60;;;18.00;99.90;;;;;;5012395;28;20064;-82
2023/04/23 11:12:09;;;;;;;10.38;3.38;;;17.80;99.90;;;;;;4994536;28;20060;-82
2023/04/23 11:14:57;;;;;;;7.80;3.00;;;17.70;99.90;;;;;;5013096;28;20077;-85
2023/04/23 11:17:32;;;;;;;10.23;3.28;;;17.40;99.90;;;;;;4994323;28;20049;-83
2023/04/23 11:20:09;;;;;;;10.00;2.83;;;17.50;99.90;;;;;;4984404;28;20045;-83
2023/04/23 11:22:47;;;;;;;8.02;3.17;;;17.70;99.90;;;;;;5012568;28;20041;-83
2023/04/23 11:25:25;;;;;;;7.88;2.78;;;17.80;99.90;;;;;;4993796;28;20042;-82
2023/04/23 11:27:53;;;;;;;10.13;3.15;;;17.80;99.90;;;;;;4982293;28;20037;-81
2023/04/23 11:30:23;;;;;;;9.48;3.20;;;18.00;99.90;;;;;;5012411;28;20044;-81
2023/04/23 11:32:53;;;;;;;8.95;2.63;;;18.30;99.90;;;;;;4981974;28;20088;-82
2023/04/23 11:35:20;;;;;;;8.32;3.10;;;18.50;99.90;;;;;;4994521;28;20045;-81
2023/04/23 11:37:48;;;;;;;8.02;2.35;;;18.40;99.90;;;;;;4994830;28;20045;-81
2023/04/23 11:40:18;;;;;;;7.88;2.60;;;18.50;99.90;;;;;;4997643;23;20089;-80
2023/04/23 11:42:53;;;;;;;9.48;2.65;;;18.70;99.90;;;;;;4994927;28;20496;-80
2023/04/23 11:45:23;;;;;;;10.57;2.78;;;18.80;99.90;;;;;;5012105;28;20482;-81
2023/04/23 11:47:57;;;;;;;9.23;2.70;;;18.90;99.90;;;;;;5012385;28;20070;-81
2023/04/23 11:50:32;;;;;;;8.30;2.85;;;18.90;99.90;;;;;;4994782;28;20053;-81
2023/04/23 11:53:06;;;;;;;9.20;2.30;;;19.00;99.90;;;;;;4993502;28;20104;-81
2023/04/23 11:55:48;;;;;;;9.13;2.75;;;19.20;99.90;;;;;;4998214;28;20093;-81
2023/04/23 11:58:16;;;;;;;8.20;2.60;;;19.40;99.90;;;;;;4977521;28;20061;-81
2023/04/23 12:00:42;;;;;;;8.80;2.63;;;19.50;99.90;;;;;;4989663;28;20413;-81
2023/04/23 12:03:20;;;;;;;;;;;;;;;;;;;;;
2023/04/23 12:06:24;;;;;;;8.45;2.55;;;19.20;99.90;;;;;;4983778;28;20062;-81
2023/04/23 12:08:49;;;;;;;8.60;2.92;;;19.30;99.90;;;;;;4926922;29;20048;-82
2023/04/23 12:11:15;;;;;;;8.02;2.63;;;19.60;99.90;;;;;;4908587;29;20408;-81
2023/04/23 12:13:48;;;;;;;8.15;2.22;;;19.60;99.90;;;;;;4986040;28;20494;-81
2023/04/23 12:19:38;;;;;;;8.63;2.50;;;20.60;99.90;;;;;;5006751;28;20045;-81
2023/04/23 12:23:14;;;;;;;6.90;2.20;;;20.00;99.90;;;;;;5023040;28;20050;-81
2023/04/23 12:26:23;;;;;;;6.80;2.15;;;19.20;97.60;;;;;;4880057;29;20075;-82
2023/04/23 12:29:26;;;;;;;8.82;2.20;;;19.00;99.90;;;;;;4874820;29;20537;-86
2023/04/23 12:39:51;;;;;;;8.30;2.65;;;18.70;99.90;;;;;;4808549;29;20115;-87
2023/04/23 12:45:48;;;;;;;9.80;2.50;;;19.20;99.90;;;;;;4800102;29;20034;-81
2023/04/23 12:48:26;;;;;;;10.48;2.35;;;19.20;99.90;;;;;;4802023;29;20829;-82
2023/04/23 12:50:52;;;;;;;8.95;2.50;;;19.10;99.90;;;;;;4843899;29;20132;-81
2023/04/23 12:53:26;;;;;;;9.13;2.67;;;19.10;99.90;;;;;;4860027;29;20153;-81
2023/04/23 12:55:52;;;;;;;9.43;2.60;;;19.00;99.90;;;;;;4859723;29;20061;-81
2023/04/23 12:58:30;;;;;;;10.60;2.97;;;19.70;99.90;;;;;;4859920;29;20053;-80
2023/04/23 13:00:56;;;;;;;8.95;2.65;;;20.00;99.90;;;;;;4900444;29;20036;-82
2023/04/23 13:03:30;;;;;;;9.43;2.40;;;19.10;99.90;;;;;;4915899;29;20055;-81
2023/04/23 13:05:55;;;;;;;10.55;2.60;;;19.00;99.90;;;;;;4915909;29;20044;-81
2023/04/23 13:08:33;;;;;;;7.88;2.35;;;19.00;99.90;;;;;;4974794;28;20050;-81